sensor_id;sensor_type;location;lat;lon;timestamp;P1;durP1;ratioP1;P2;durP2;ratioP2
3924;SDS011;1977;52.274;10.518;2023-12-07T00:01:23;32.77;;;21.60;;
3924;SDS011;1977;52.274;10.518;2023-12-07T00:03:49;31.23;;;22.13;;
3924;SDS011;1977;52.274;10.518;2023-12-07T00:06:17;33.63;;;21.47;;
3924;SDS011;1977;52.274;10.518;2023-12-07T00:08:44;33.37;;;20.40;;
3924;SDS011;1977;52.274;10.518;2023-12-07T00:11:11;28.87;;;19.90;;
3924;SDS011;1977;52.274;10.518;2023-12-07T00:13:38;31.27;;;21.23;;
3924;SDS011;1977;52.274;10.518;2023-12-07T00:16:04;33.97;;;21.00;;
3924;SDS011;1977;52.274;10.518;2023-12-07T00:18:32;32.77;;;21.87;;
3924;SDS011;1977;52.274;10.518;2023-12-07T00:20:59;33.30;;;21.10;;
3924;SDS011;1977;52.274;10.518;2023-12-07T00:23:27;31.57;;;21.57;;
3924;SDS011;1977;52.274;10.518;2023-12-07T00:25:53;31.63;;;21.00;;
3924;SDS011;1977;52.274;10.518;2023-12-07T00:28:20;30.93;;;20.90;;
3924;SDS011;1977;52.274;10.518;2023-12-07T00:30:47;30.70;;;21.00;;
3924;SDS011;1977;52.274;10.518;2023-12-07T00:33:14;29.70;;;20.57;;
3924;SDS011;1977;52.274;10.518;2023-12-07T00:35:42;28.43;;;18.47;;
3924;SDS011;1977;52.274;10.518;2023-12-07T00:38:08;29.37;;;20.80;;
3924;SDS011;1977;52.274;10.518;2023-12-07T00:40:37;29.30;;;19.37;;
3924;SDS011;1977;52.274;10.518;2023-12-07T00:43:05;32.90;;;21.10;;
3924;SDS011;1977;52.274;10.518;2023-12-07T00:45:32;30.07;;;19.00;;
3924;SDS011;1977;52.274;10.518;2023-12-07T00:47:59;29.07;;;18.47;;
3924;SDS011;1977;52.274;10.518;2023-12-07T00:50:25;27.90;;;19.80;;
3924;SDS011;1977;52.274;10.518;2023-12-07T00:52:52;26.50;;;19.13;;
3924;SDS011;1977;52.274;10.518;2023-12-07T00:55:19;32.03;;;19.20;;
3924;SDS011;1977;52.274;10.518;2023-12-07T00:57:48;28.13;;;19.13;;
3924;SDS011;1977;52.274;10.518;2023-12-07T01:00:15;28.17;;;18.53;;
3924;SDS011;1977;52.274;10.518;2023-12-07T01:02:42;33.17;;;20.87;;
3924;SDS011;1977;52.274;10.518;2023-12-07T01:05:08;31.57;;;20.30;;
3924;SDS011;1977;52.274;10.518;2023-12-07T01:07:35;29.17;;;18.33;;
3924;SDS011;1977;52.274;10.518;2023-12-07T01:10:02;29.33;;;19.27;;
3924;SDS011;1977;52.274;10.518;2023-12-07T01:12:29;29.73;;;19.23;;
3924;SDS011;1977;52.274;10.518;2023-12-07T01:14:57;32.93;;;21.13;;
3924;SDS011;1977;52.274;10.518;2023-12-07T01:17:24;28.90;;;18.70;;
3924;SDS011;1977;52.274;10.518;2023-12-07T01:19:51;27.17;;;18.30;;
3924;SDS011;1977;52.274;10.518;2023-12-07T01:22:18;28.80;;;18.07;;
3924;SDS011;1977;52.274;10.518;2023-12-07T01:24:45;27.23;;;18.63;;
3924;SDS011;1977;52.274;10.518;2023-12-07T01:27:13;29.87;;;19.00;;
3924;SDS011;1977;52.274;10.518;2023-12-07T01:29:39;31.10;;;19.90;;
3924;SDS011;1977;52.274;10.518;2023-12-07T01:32:08;29.03;;;19.27;;
3924;SDS011;1977;52.274;10.518;2023-12-07T01:34:34;28.73;;;19.17;;
3924;SDS011;1977;52.274;10.518;2023-12-07T01:37:01;27.97;;;17.60;;
3924;SDS011;1977;52.274;10.518;2023-12-07T01:39:28;28.03;;;18.80;;
3924;SDS011;1977;52.274;10.518;2023-12-07T01:41:55;32.10;;;20.17;;
3924;SDS011;1977;52.274;10.518;2023-12-07T01:44:22;30.50;;;20.27;;
3924;SDS011;1977;52.274;10.518;2023-12-07T01:46:49;28.83;;;18.53;;
3924;SDS011;1977;52.274;10.518;2023-12-07T01:49:17;30.00;;;18.53;;
3924;SDS011;1977;52.274;10.518;2023-12-07T01:51:44;27.33;;;19.00;;
3924;SDS011;1977;52.274;10.518;2023-12-07T01:54:11;27.57;;;18.10;;
3924;SDS011;1977;52.274;10.518;2023-12-07T01:56:38;28.87;;;17.97;;
3924;SDS011;1977;52.274;10.518;2023-12-07T01:59:05;28.90;;;18.97;;
3924;SDS011;1977;52.274;10.518;2023-12-07T02:01:32;28.87;;;20.20;;
3924;SDS011;1977;52.274;10.518;2023-12-07T02:03:59;32.67;;;19.43;;
3924;SDS011;1977;52.274;10.518;2023-12-07T02:06:27;29.57;;;19.83;;
3924;SDS011;1977;52.274;10.518;2023-12-07T02:08:54;30.87;;;19.37;;
3924;SDS011;1977;52.274;10.518;2023-12-07T02:11:21;28.40;;;19.23;;
3924;SDS011;1977;52.274;10.518;2023-12-07T02:13:48;29.17;;;18.30;;
3924;SDS011;1977;52.274;10.518;2023-12-07T02:16:21;29.23;;;18.87;;
3924;SDS011;1977;52.274;10.518;2023-12-07T02:18:55;28.63;;;19.57;;
3924;SDS011;1977;52.274;10.518;2023-12-07T02:21:33;29.40;;;19.83;;
3924;SDS011;1977;52.274;10.518;2023-12-07T02:24:04;27.43;;;17.73;;
3924;SDS011;1977;52.274;10.518;2023-12-07T02:26:34;25.70;;;17.20;;
3924;SDS011;1977;52.274;10.518;2023-12-07T02:29:02;26.73;;;19.30;;
3924;SDS011;1977;52.274;10.518;2023-12-07T02:31:29;28.10;;;18.63;;
3924;SDS011;1977;52.274;10.518;2023-12-07T02:33:56;29.47;;;18.80;;
3924;SDS011;1977;52.274;10.518;2023-12-07T02:36:24;27.00;;;18.03;;
3924;SDS011;1977;52.274;10.518;2023-12-07T02:38:53;22.10;;;16.47;;
3924;SDS011;1977;52.274;10.518;2023-12-07T02:41:26;27.70;;;17.00;;
3924;SDS011;1977;52.274;10.518;2023-12-07T02:43:54;25.37;;;17.37;;
3924;SDS011;1977;52.274;10.518;2023-12-07T02:46:22;26.73;;;17.40;;
3924;SDS011;1977;52.274;10.518;2023-12-07T02:48:49;27.00;;;17.40;;
3924;SDS011;1977;52.274;10.518;2023-12-07T02:51:16;26.90;;;18.10;;
3924;SDS011;1977;52.274;10.518;2023-12-07T02:53:43;26.53;;;17.30;;
3924;SDS011;1977;52.274;10.518;2023-12-07T02:56:10;24.33;;;17.13;;
3924;SDS011;1977;52.274;10.518;2023-12-07T02:58:37;26.60;;;18.57;;
3924;SDS011;1977;52.274;10.518;2023-12-07T03:01:04;26.47;;;18.03;;
3924;SDS011;1977;52.274;10.518;2023-12-07T03:03:31;25.80;;;17.80;;
3924;SDS011;1977;52.274;10.518;2023-12-07T03:05:58;25.83;;;18.67;;
3924;SDS011;1977;52.274;10.518;2023-12-07T03:08:25;25.77;;;18.00;;
3924;SDS011;1977;52.274;10.518;2023-12-07T03:10:53;25.33;;;16.80;;
3924;SDS011;1977;52.274;10.518;2023-12-07T03:13:20;24.53;;;18.33;;
3924;SDS011;1977;52.274;10.518;2023-12-07T03:15:46;29.00;;;19.00;;
3924;SDS011;1977;52.274;10.518;2023-12-07T03:18:14;23.73;;;16.37;;
3924;SDS011;1977;52.274;10.518;2023-12-07T03:20:41;27.30;;;17.53;;
3924;SDS011;1977;52.274;10.518;2023-12-07T03:23:08;24.97;;;17.40;;
3924;SDS011;1977;52.274;10.518;2023-12-07T03:25:35;26.13;;;18.13;;
3924;SDS011;1977;52.274;10.518;2023-12-07T03:28:02;25.33;;;17.70;;
3924;SDS011;1977;52.274;10.518;2023-12-07T03:30:28;24.97;;;17.40;;
3924;SDS011;1977;52.274;10.518;2023-12-07T03:32:55;27.43;;;19.33;;
3924;SDS011;1977;52.274;10.518;2023-12-07T03:35:23;25.70;;;18.23;;
3924;SDS011;1977;52.274;10.518;2023-12-07T03:37:50;22.83;;;17.20;;
3924;SDS011;1977;52.274;10.518;2023-12-07T03:40:17;28.00;;;18.70;;
3924;SDS011;1977;52.274;10.518;2023-12-07T03:42:43;27.00;;;17.70;;
3924;SDS011;1977;52.274;10.518;2023-12-07T03:45:10;24.40;;;18.20;;
3924;SDS011;1977;52.274;10.518;2023-12-07T03:47:37;25.70;;;17.10;;
3924;SDS011;1977;52.274;10.518;2023-12-07T03:50:04;23.17;;;17.00;;
3924;SDS011;1977;52.274;10.518;2023-12-07T03:52:33;22.70;;;16.70;;
3924;SDS011;1977;52.274;10.518;2023-12-07T03:54:59;29.50;;;18.57;;
3924;SDS011;1977;52.274;10.518;2023-12-07T03:57:26;21.73;;;16.87;;
3924;SDS011;1977;52.274;10.518;2023-12-07T03:59:53;27.30;;;18.43;;
3924;SDS011;1977;52.274;10.518;2023-12-07T04:02:20;26.30;;;17.17;;
3924;SDS011;1977;52.274;10.518;2023-12-07T04:04:47;27.60;;;17.83;;
3924;SDS011;1977;52.274;10.518;2023-12-07T04:07:14;23.07;;;16.67;;
3924;SDS011;1977;52.274;10.518;2023-12-07T04:09:43;24.77;;;17.80;;
3924;SDS011;1977;52.274;10.518;2023-12-07T04:12:10;26.90;;;17.83;;
3924;SDS011;1977;52.274;10.518;2023-12-07T04:14:37;27.43;;;17.13;;
3924;SDS011;1977;52.274;10.518;2023-12-07T04:17:03;26.17;;;16.13;;
3924;SDS011;1977;52.274;10.518;2023-12-07T04:19:30;23.23;;;16.73;;
3924;SDS011;1977;52.274;10.518;2023-12-07T04:21:57;26.80;;;16.80;;
3924;SDS011;1977;52.274;10.518;2023-12-07T04:24:24;26.37;;;17.90;;
3924;SDS011;1977;52.274;10.518;2023-12-07T04:26:52;24.67;;;17.40;;
3924;SDS011;1977;52.274;10.518;2023-12-07T04:29:18;26.60;;;18.20;;
3924;SDS011;1977;52.274;10.518;2023-12-07T04:31:45;24.83;;;16.90;;
3924;SDS011;1977;52.274;10.518;2023-12-07T04:34:12;22.47;;;17.17;;
3924;SDS011;1977;52.274;10.518;2023-12-07T04:36:39;24.43;;;17.50;;
3924;SDS011;1977;52.274;10.518;2023-12-07T04:39:05;26.50;;;16.20;;
3924;SDS011;1977;52.274;10.518;2023-12-07T04:41:33;23.23;;;16.90;;
3924;SDS011;1977;52.274;10.518;2023-12-07T04:44:01;23.67;;;16.40;;
3924;SDS011;1977;52.274;10.518;2023-12-07T04:46:28;23.23;;;16.30;;
3924;SDS011;1977;52.274;10.518;2023-12-07T04:48:55;21.27;;;16.17;;
3924;SDS011;1977;52.274;10.518;2023-12-07T04:51:21;23.03;;;16.73;;
3924;SDS011;1977;52.274;10.518;2023-12-07T04:53:48;23.37;;;15.97;;
3924;SDS011;1977;52.274;10.518;2023-12-07T04:56:15;25.43;;;17.00;;
3924;SDS011;1977;52.274;10.518;2023-12-07T04:58:42;25.83;;;17.77;;
3924;SDS011;1977;52.274;10.518;2023-12-07T05:01:10;23.07;;;16.47;;
3924;SDS011;1977;52.274;10.518;2023-12-07T05:03:37;28.23;;;17.93;;
3924;SDS011;1977;52.274;10.518;2023-12-07T05:06:04;25.20;;;16.93;;
3924;SDS011;1977;52.274;10.518;2023-12-07T05:08:32;21.77;;;15.00;;
3924;SDS011;1977;52.274;10.518;2023-12-07T05:10:59;24.90;;;17.83;;
3924;SDS011;1977;52.274;10.518;2023-12-07T05:13:26;26.97;;;17.87;;
3924;SDS011;1977;52.274;10.518;2023-12-07T05:15:53;26.83;;;16.87;;
3924;SDS011;1977;52.274;10.518;2023-12-07T05:18:21;25.10;;;17.77;;
3924;SDS011;1977;52.274;10.518;2023-12-07T05:20:47;24.40;;;17.23;;
3924;SDS011;1977;52.274;10.518;2023-12-07T05:23:14;24.93;;;17.53;;
3924;SDS011;1977;52.274;10.518;2023-12-07T05:25:41;25.80;;;18.00;;
3924;SDS011;1977;52.274;10.518;2023-12-07T05:28:08;24.40;;;17.17;;
3924;SDS011;1977;52.274;10.518;2023-12-07T05:30:35;30.30;;;18.90;;
3924;SDS011;1977;52.274;10.518;2023-12-07T05:33:02;27.20;;;17.53;;
3924;SDS011;1977;52.274;10.518;2023-12-07T05:35:30;25.47;;;17.87;;
3924;SDS011;1977;52.274;10.518;2023-12-07T05:37:57;28.77;;;18.60;;
3924;SDS011;1977;52.274;10.518;2023-12-07T05:40:24;24.97;;;17.73;;
3924;SDS011;1977;52.274;10.518;2023-12-07T05:42:51;24.63;;;17.90;;
3924;SDS011;1977;52.274;10.518;2023-12-07T05:45:18;26.67;;;18.53;;
3924;SDS011;1977;52.274;10.518;2023-12-07T05:47:44;27.57;;;18.70;;
3924;SDS011;1977;52.274;10.518;2023-12-07T05:50:11;28.87;;;18.30;;
3924;SDS011;1977;52.274;10.518;2023-12-07T05:52:39;27.53;;;18.97;;
3924;SDS011;1977;52.274;10.518;2023-12-07T05:55:06;26.90;;;19.03;;
3924;SDS011;1977;52.274;10.518;2023-12-07T05:57:33;28.77;;;18.63;;
3924;SDS011;1977;52.274;10.518;2023-12-07T06:00:00;29.77;;;18.40;;
3924;SDS011;1977;52.274;10.518;2023-12-07T06:02:27;29.00;;;18.00;;
3924;SDS011;1977;52.274;10.518;2023-12-07T06:04:54;30.13;;;20.77;;
3924;SDS011;1977;52.274;10.518;2023-12-07T06:07:21;29.50;;;18.87;;
3924;SDS011;1977;52.274;10.518;2023-12-07T06:09:49;25.90;;;18.17;;
3924;SDS011;1977;52.274;10.518;2023-12-07T06:12:15;25.60;;;18.47;;
3924;SDS011;1977;52.274;10.518;2023-12-07T06:14:42;25.70;;;18.10;;
3924;SDS011;1977;52.274;10.518;2023-12-07T06:17:09;32.47;;;18.43;;
3924;SDS011;1977;52.274;10.518;2023-12-07T06:19:36;28.23;;;18.83;;
3924;SDS011;1977;52.274;10.518;2023-12-07T06:22:03;27.30;;;18.50;;
3924;SDS011;1977;52.274;10.518;2023-12-07T06:24:31;28.73;;;19.60;;
3924;SDS011;1977;52.274;10.518;2023-12-07T06:26:59;29.60;;;19.60;;
3924;SDS011;1977;52.274;10.518;2023-12-07T06:29:26;26.77;;;18.97;;
3924;SDS011;1977;52.274;10.518;2023-12-07T06:31:54;26.70;;;19.43;;
3924;SDS011;1977;52.274;10.518;2023-12-07T06:34:20;28.80;;;17.77;;
3924;SDS011;1977;52.274;10.518;2023-12-07T06:36:47;28.00;;;19.43;;
3924;SDS011;1977;52.274;10.518;2023-12-07T06:39:14;23.70;;;18.40;;
3924;SDS011;1977;52.274;10.518;2023-12-07T06:41:41;28.40;;;19.60;;
3924;SDS011;1977;52.274;10.518;2023-12-07T06:44:09;29.60;;;20.10;;
3924;SDS011;1977;52.274;10.518;2023-12-07T06:46:35;31.27;;;19.47;;
3924;SDS011;1977;52.274;10.518;2023-12-07T06:49:02;27.70;;;18.90;;
3924;SDS011;1977;52.274;10.518;2023-12-07T06:51:29;27.40;;;19.00;;
3924;SDS011;1977;52.274;10.518;2023-12-07T06:53:57;30.70;;;20.10;;
3924;SDS011;1977;52.274;10.518;2023-12-07T06:56:23;28.07;;;18.57;;
3924;SDS011;1977;52.274;10.518;2023-12-07T06:58:50;26.23;;;17.43;;
3924;SDS011;1977;52.274;10.518;2023-12-07T07:01:18;24.90;;;17.77;;
3924;SDS011;1977;52.274;10.518;2023-12-07T07:03:45;26.50;;;18.47;;
3924;SDS011;1977;52.274;10.518;2023-12-07T07:06:12;24.17;;;16.67;;
3924;SDS011;1977;52.274;10.518;2023-12-07T07:08:38;27.43;;;19.03;;
3924;SDS011;1977;52.274;10.518;2023-12-07T07:11:09;26.70;;;18.67;;
3924;SDS011;1977;52.274;10.518;2023-12-07T07:13:38;30.67;;;19.40;;
3924;SDS011;1977;52.274;10.518;2023-12-07T07:16:06;24.70;;;17.20;;
3924;SDS011;1977;52.274;10.518;2023-12-07T07:18:36;25.17;;;18.37;;
3924;SDS011;1977;52.274;10.518;2023-12-07T07:21:04;24.53;;;16.57;;
3924;SDS011;1977;52.274;10.518;2023-12-07T07:23:31;23.47;;;17.03;;
3924;SDS011;1977;52.274;10.518;2023-12-07T07:25:57;26.53;;;17.83;;
3924;SDS011;1977;52.274;10.518;2023-12-07T07:28:24;23.60;;;18.10;;
3924;SDS011;1977;52.274;10.518;2023-12-07T07:30:51;25.37;;;18.27;;
3924;SDS011;1977;52.274;10.518;2023-12-07T07:33:18;24.07;;;16.67;;
3924;SDS011;1977;52.274;10.518;2023-12-07T07:35:46;23.63;;;18.30;;
3924;SDS011;1977;52.274;10.518;2023-12-07T07:38:13;25.90;;;17.90;;
3924;SDS011;1977;52.274;10.518;2023-12-07T07:40:40;26.77;;;18.20;;
3924;SDS011;1977;52.274;10.518;2023-12-07T07:43:07;24.63;;;18.43;;
3924;SDS011;1977;52.274;10.518;2023-12-07T07:45:33;24.23;;;16.83;;
3924;SDS011;1977;52.274;10.518;2023-12-07T07:48:01;25.40;;;16.93;;
3924;SDS011;1977;52.274;10.518;2023-12-07T07:50:27;27.87;;;16.93;;
3924;SDS011;1977;52.274;10.518;2023-12-07T07:52:55;26.77;;;18.67;;
3924;SDS011;1977;52.274;10.518;2023-12-07T07:55:22;24.63;;;16.63;;
3924;SDS011;1977;52.274;10.518;2023-12-07T07:57:49;28.90;;;19.73;;
3924;SDS011;1977;52.274;10.518;2023-12-07T08:00:16;27.10;;;16.97;;
3924;SDS011;1977;52.274;10.518;2023-12-07T08:02:44;25.07;;;17.23;;
3924;SDS011;1977;52.274;10.518;2023-12-07T08:05:11;26.80;;;17.53;;
3924;SDS011;1977;52.274;10.518;2023-12-07T08:07:37;30.13;;;19.13;;
3924;SDS011;1977;52.274;10.518;2023-12-07T08:10:07;24.90;;;17.87;;
3924;SDS011;1977;52.274;10.518;2023-12-07T08:12:34;26.03;;;18.13;;
3924;SDS011;1977;52.274;10.518;2023-12-07T08:15:01;26.33;;;17.27;;
3924;SDS011;1977;52.274;10.518;2023-12-07T08:17:29;23.57;;;16.07;;
3924;SDS011;1977;52.274;10.518;2023-12-07T08:19:56;23.23;;;16.50;;
3924;SDS011;1977;52.274;10.518;2023-12-07T08:22:24;25.90;;;18.33;;
3924;SDS011;1977;52.274;10.518;2023-12-07T08:24:51;25.40;;;17.87;;
3924;SDS011;1977;52.274;10.518;2023-12-07T08:27:19;24.10;;;17.20;;
3924;SDS011;1977;52.274;10.518;2023-12-07T08:29:45;21.70;;;16.00;;
3924;SDS011;1977;52.274;10.518;2023-12-07T08:32:12;23.23;;;16.60;;
3924;SDS011;1977;52.274;10.518;2023-12-07T08:34:39;25.83;;;18.10;;
3924;SDS011;1977;52.274;10.518;2023-12-07T08:37:06;20.53;;;15.87;;
3924;SDS011;1977;52.274;10.518;2023-12-07T08:39:33;24.53;;;17.73;;
3924;SDS011;1977;52.274;10.518;2023-12-07T08:41:59;22.70;;;16.77;;
3924;SDS011;1977;52.274;10.518;2023-12-07T08:44:28;20.70;;;16.80;;
3924;SDS011;1977;52.274;10.518;2023-12-07T08:46:54;25.50;;;16.97;;
3924;SDS011;1977;52.274;10.518;2023-12-07T08:49:21;23.57;;;16.17;;
3924;SDS011;1977;52.274;10.518;2023-12-07T08:51:48;23.27;;;16.90;;
3924;SDS011;1977;52.274;10.518;2023-12-07T08:54:14;24.27;;;16.40;;
3924;SDS011;1977;52.274;10.518;2023-12-07T08:56:43;24.80;;;16.30;;
3924;SDS011;1977;52.274;10.518;2023-12-07T08:59:10;24.10;;;16.43;;
3924;SDS011;1977;52.274;10.518;2023-12-07T09:01:38;22.27;;;16.00;;
3924;SDS011;1977;52.274;10.518;2023-12-07T09:04:05;24.97;;;17.20;;
3924;SDS011;1977;52.274;10.518;2023-12-07T09:06:32;21.40;;;15.80;;
3924;SDS011;1977;52.274;10.518;2023-12-07T09:08:59;21.40;;;15.37;;
3924;SDS011;1977;52.274;10.518;2023-12-07T09:11:25;22.43;;;16.03;;
3924;SDS011;1977;52.274;10.518;2023-12-07T09:13:54;23.20;;;16.13;;
3924;SDS011;1977;52.274;10.518;2023-12-07T09:16:20;21.03;;;15.50;;
3924;SDS011;1977;52.274;10.518;2023-12-07T09:18:49;22.80;;;16.80;;
3924;SDS011;1977;52.274;10.518;2023-12-07T09:21:16;21.13;;;15.60;;
3924;SDS011;1977;52.274;10.518;2023-12-07T09:23:42;22.23;;;15.33;;
3924;SDS011;1977;52.274;10.518;2023-12-07T09:26:09;20.50;;;15.23;;
3924;SDS011;1977;52.274;10.518;2023-12-07T09:28:36;22.83;;;16.07;;
3924;SDS011;1977;52.274;10.518;2023-12-07T09:31:04;19.07;;;14.20;;
3924;SDS011;1977;52.274;10.518;2023-12-07T09:33:32;18.80;;;15.13;;
3924;SDS011;1977;52.274;10.518;2023-12-07T09:36:00;19.17;;;13.90;;
3924;SDS011;1977;52.274;10.518;2023-12-07T09:38:28;24.27;;;15.77;;
3924;SDS011;1977;52.274;10.518;2023-12-07T09:40:55;23.30;;;16.60;;
3924;SDS011;1977;52.274;10.518;2023-12-07T09:43:22;27.23;;;18.13;;
3924;SDS011;1977;52.274;10.518;2023-12-07T09:45:48;24.10;;;16.13;;
3924;SDS011;1977;52.274;10.518;2023-12-07T09:48:20;21.27;;;16.03;;
3924;SDS011;1977;52.274;10.518;2023-12-07T09:50:48;23.00;;;15.60;;
3924;SDS011;1977;52.274;10.518;2023-12-07T09:53:16;24.30;;;16.47;;
3924;SDS011;1977;52.274;10.518;2023-12-07T09:55:43;27.23;;;16.43;;
3924;SDS011;1977;52.274;10.518;2023-12-07T09:58:09;19.43;;;14.70;;
3924;SDS011;1977;52.274;10.518;2023-12-07T10:00:37;21.47;;;15.03;;
3924;SDS011;1977;52.274;10.518;2023-12-07T10:03:03;18.60;;;13.60;;
3924;SDS011;1977;52.274;10.518;2023-12-07T10:05:33;21.97;;;14.53;;
3924;SDS011;1977;52.274;10.518;2023-12-07T10:08:00;22.10;;;15.77;;
3924;SDS011;1977;52.274;10.518;2023-12-07T10:10:28;24.80;;;16.20;;
3924;SDS011;1977;52.274;10.518;2023-12-07T10:12:56;23.03;;;15.90;;
3924;SDS011;1977;52.274;10.518;2023-12-07T10:15:25;22.93;;;15.97;;
3924;SDS011;1977;52.274;10.518;2023-12-07T10:17:54;20.57;;;15.33;;
3924;SDS011;1977;52.274;10.518;2023-12-07T10:20:22;21.03;;;14.23;;
3924;SDS011;1977;52.274;10.518;2023-12-07T10:23:00;22.20;;;15.30;;
3924;SDS011;1977;52.274;10.518;2023-12-07T10:25:29;22.43;;;14.80;;
3924;SDS011;1977;52.274;10.518;2023-12-07T10:27:56;22.37;;;15.40;;
3924;SDS011;1977;52.274;10.518;2023-12-07T10:30:23;22.30;;;15.93;;
3924;SDS011;1977;52.274;10.518;2023-12-07T10:32:50;24.47;;;17.00;;
3924;SDS011;1977;52.274;10.518;2023-12-07T10:35:17;28.47;;;18.57;;
3924;SDS011;1977;52.274;10.518;2023-12-07T10:37:45;22.97;;;15.93;;
3924;SDS011;1977;52.274;10.518;2023-12-07T10:40:12;21.27;;;15.80;;
3924;SDS011;1977;52.274;10.518;2023-12-07T10:42:41;22.47;;;15.50;;
3924;SDS011;1977;52.274;10.518;2023-12-07T10:45:09;24.03;;;15.60;;
3924;SDS011;1977;52.274;10.518;2023-12-07T10:47:39;20.37;;;15.03;;
3924;SDS011;1977;52.274;10.518;2023-12-07T10:50:07;21.93;;;14.90;;
3924;SDS011;1977;52.274;10.518;2023-12-07T10:52:36;18.53;;;14.23;;
3924;SDS011;1977;52.274;10.518;2023-12-07T10:55:06;21.07;;;15.93;;
3924;SDS011;1977;52.274;10.518;2023-12-07T10:57:36;26.13;;;15.53;;
3924;SDS011;1977;52.274;10.518;2023-12-07T11:00:06;19.43;;;14.80;;
3924;SDS011;1977;52.274;10.518;2023-12-07T11:02:34;17.80;;;14.07;;
3924;SDS011;1977;52.274;10.518;2023-12-07T11:05:02;20.30;;;14.60;;
3924;SDS011;1977;52.274;10.518;2023-12-07T11:07:32;18.90;;;14.63;;
3924;SDS011;1977;52.274;10.518;2023-12-07T11:10:11;17.97;;;13.73;;
3924;SDS011;1977;52.274;10.518;2023-12-07T11:12:45;19.10;;;13.60;;
3924;SDS011;1977;52.274;10.518;2023-12-07T11:15:17;22.10;;;15.70;;
3924;SDS011;1977;52.274;10.518;2023-12-07T11:17:49;24.33;;;16.00;;
3924;SDS011;1977;52.274;10.518;2023-12-07T11:20:19;17.43;;;13.00;;
3924;SDS011;1977;52.274;10.518;2023-12-07T11:22:47;18.27;;;14.03;;
3924;SDS011;1977;52.274;10.518;2023-12-07T11:25:14;22.73;;;15.03;;
3924;SDS011;1977;52.274;10.518;2023-12-07T11:27:44;17.73;;;14.10;;
3924;SDS011;1977;52.274;10.518;2023-12-07T11:30:13;16.57;;;13.03;;
3924;SDS011;1977;52.274;10.518;2023-12-07T11:32:42;19.87;;;14.90;;
3924;SDS011;1977;52.274;10.518;2023-12-07T11:35:12;17.67;;;13.50;;
3924;SDS011;1977;52.274;10.518;2023-12-07T11:40:36;15.37;;;12.73;;
3924;SDS011;1977;52.274;10.518;2023-12-07T11:43:05;20.53;;;14.20;;
3924;SDS011;1977;52.274;10.518;2023-12-07T11:45:36;18.77;;;15.50;;
3924;SDS011;1977;52.274;10.518;2023-12-07T11:48:11;19.03;;;13.57;;
3924;SDS011;1977;52.274;10.518;2023-12-07T11:50:54;18.90;;;13.60;;
3924;SDS011;1977;52.274;10.518;2023-12-07T11:53:25;17.33;;;13.00;;
3924;SDS011;1977;52.274;10.518;2023-12-07T11:55:53;18.37;;;14.27;;
3924;SDS011;1977;52.274;10.518;2023-12-07T11:58:20;26.50;;;15.00;;
3924;SDS011;1977;52.274;10.518;2023-12-07T12:00:47;21.10;;;14.93;;
3924;SDS011;1977;52.274;10.518;2023-12-07T12:03:15;25.70;;;14.43;;
3924;SDS011;1977;52.274;10.518;2023-12-07T12:05:42;19.27;;;14.43;;
3924;SDS011;1977;52.274;10.518;2023-12-07T12:08:09;18.53;;;13.77;;
3924;SDS011;1977;52.274;10.518;2023-12-07T12:10:36;18.00;;;13.80;;
3924;SDS011;1977;52.274;10.518;2023-12-07T12:13:03;17.13;;;14.40;;
3924;SDS011;1977;52.274;10.518;2023-12-07T12:15:30;17.40;;;14.57;;
3924;SDS011;1977;52.274;10.518;2023-12-07T12:17:58;21.00;;;14.53;;
3924;SDS011;1977;52.274;10.518;2023-12-07T12:20:27;21.00;;;15.27;;
3924;SDS011;1977;52.274;10.518;2023-12-07T12:22:54;21.47;;;15.60;;
3924;SDS011;1977;52.274;10.518;2023-12-07T12:25:21;19.87;;;14.23;;
3924;SDS011;1977;52.274;10.518;2023-12-07T12:27:50;21.33;;;15.00;;
3924;SDS011;1977;52.274;10.518;2023-12-07T12:30:18;19.57;;;15.10;;
3924;SDS011;1977;52.274;10.518;2023-12-07T12:32:47;17.30;;;13.80;;
3924;SDS011;1977;52.274;10.518;2023-12-07T12:35:15;19.07;;;14.07;;
3924;SDS011;1977;52.274;10.518;2023-12-07T12:37:44;18.77;;;13.90;;
3924;SDS011;1977;52.274;10.518;2023-12-07T12:40:12;20.70;;;16.20;;
3924;SDS011;1977;52.274;10.518;2023-12-07T12:42:43;24.07;;;15.30;;
3924;SDS011;1977;52.274;10.518;2023-12-07T12:45:11;20.97;;;15.70;;
3924;SDS011;1977;52.274;10.518;2023-12-07T12:47:38;19.40;;;14.13;;
3924;SDS011;1977;52.274;10.518;2023-12-07T12:50:05;18.27;;;15.67;;
3924;SDS011;1977;52.274;10.518;2023-12-07T12:52:33;19.80;;;14.43;;
3924;SDS011;1977;52.274;10.518;2023-12-07T12:55:01;18.07;;;15.70;;
3924;SDS011;1977;52.274;10.518;2023-12-07T12:57:28;20.70;;;15.60;;
3924;SDS011;1977;52.274;10.518;2023-12-07T12:59:57;19.17;;;15.00;;
3924;SDS011;1977;52.274;10.518;2023-12-07T13:02:27;20.83;;;14.57;;
3924;SDS011;1977;52.274;10.518;2023-12-07T13:04:53;22.40;;;15.43;;
3924;SDS011;1977;52.274;10.518;2023-12-07T13:07:21;23.23;;;15.20;;
3924;SDS011;1977;52.274;10.518;2023-12-07T13:09:49;17.43;;;13.77;;
3924;SDS011;1977;52.274;10.518;2023-12-07T13:12:17;19.40;;;14.20;;
3924;SDS011;1977;52.274;10.518;2023-12-07T13:14:44;16.37;;;13.87;;
3924;SDS011;1977;52.274;10.518;2023-12-07T13:17:11;21.77;;;14.53;;
3924;SDS011;1977;52.274;10.518;2023-12-07T13:19:38;18.20;;;14.20;;
3924;SDS011;1977;52.274;10.518;2023-12-07T13:22:05;18.13;;;13.50;;
3924;SDS011;1977;52.274;10.518;2023-12-07T13:24:32;19.87;;;13.90;;
3924;SDS011;1977;52.274;10.518;2023-12-07T13:26:59;16.70;;;13.33;;
3924;SDS011;1977;52.274;10.518;2023-12-07T13:29:28;18.73;;;15.40;;
3924;SDS011;1977;52.274;10.518;2023-12-07T13:31:54;21.03;;;15.77;;
3924;SDS011;1977;52.274;10.518;2023-12-07T13:34:23;24.03;;;14.70;;
3924;SDS011;1977;52.274;10.518;2023-12-07T13:36:51;19.20;;;13.60;;
3924;SDS011;1977;52.274;10.518;2023-12-07T13:39:18;23.57;;;16.63;;
3924;SDS011;1977;52.274;10.518;2023-12-07T13:41:46;23.20;;;14.07;;
3924;SDS011;1977;52.274;10.518;2023-12-07T13:44:14;19.43;;;14.40;;
3924;SDS011;1977;52.274;10.518;2023-12-07T13:46:44;19.33;;;14.30;;
3924;SDS011;1977;52.274;10.518;2023-12-07T13:49:11;20.83;;;13.33;;
3924;SDS011;1977;52.274;10.518;2023-12-07T13:51:39;21.07;;;14.47;;
3924;SDS011;1977;52.274;10.518;2023-12-07T13:54:06;21.67;;;14.60;;
3924;SDS011;1977;52.274;10.518;2023-12-07T13:56:33;19.90;;;16.27;;
3924;SDS011;1977;52.274;10.518;2023-12-07T13:59:00;19.27;;;14.30;;
3924;SDS011;1977;52.274;10.518;2023-12-07T14:01:27;20.77;;;15.60;;
3924;SDS011;1977;52.274;10.518;2023-12-07T14:03:55;30.40;;;21.67;;
3924;SDS011;1977;52.274;10.518;2023-12-07T14:06:22;33.07;;;24.43;;
3924;SDS011;1977;52.274;10.518;2023-12-07T14:08:49;21.93;;;17.03;;
3924;SDS011;1977;52.274;10.518;2023-12-07T14:11:16;22.60;;;17.00;;
3924;SDS011;1977;52.274;10.518;2023-12-07T14:13:43;19.13;;;14.50;;
3924;SDS011;1977;52.274;10.518;2023-12-07T14:16:11;22.00;;;16.20;;
3924;SDS011;1977;52.274;10.518;2023-12-07T14:18:38;29.50;;;19.73;;
3924;SDS011;1977;52.274;10.518;2023-12-07T14:21:06;26.23;;;18.70;;
3924;SDS011;1977;52.274;10.518;2023-12-07T14:23:33;23.40;;;16.00;;
3924;SDS011;1977;52.274;10.518;2023-12-07T14:26:00;20.33;;;14.40;;
3924;SDS011;1977;52.274;10.518;2023-12-07T14:28:27;20.33;;;14.53;;
3924;SDS011;1977;52.274;10.518;2023-12-07T14:30:55;20.03;;;14.20;;
3924;SDS011;1977;52.274;10.518;2023-12-07T14:33:22;21.47;;;14.80;;
3924;SDS011;1977;52.274;10.518;2023-12-07T14:35:49;18.47;;;13.20;;
3924;SDS011;1977;52.274;10.518;2023-12-07T14:38:17;18.53;;;13.47;;